Ask Your Question

allenh1's profile - karma

allenh1's karma change log

10 0 Restrict ROS 2 to Localhost ( 2019-10-02 23:38:17 -0500 )

2 0 ROS 2 Admin Privileges on Windows 10 ( 2019-08-15 13:02:43 -0500 )

10 0 Problems Building from Source ( 2019-08-14 02:13:06 -0500 )

10 0 Using the MySQL database in ROS ( 2019-08-01 10:42:07 -0500 )

10 0 Using the MySQL database in ROS ( 2019-07-31 21:53:05 -0500 )

10 0 How to change $ROS_PACKAGE_PATH ( 2019-06-13 07:49:03 -0500 )

10 0 Changed by moderator. Reason: Compensated by admin during recalculation of karma ( 2019-06-02 22:22:29 -0500 )

2 0 Error "virtual space exhausted" after cloning the hector_slam package. ( 2019-05-30 10:04:19 -0500 )

0 -2 Error "virtual space exhausted" after cloning the hector_slam package. ( 2019-05-30 09:59:34 -0500 )

15 0 Using non-supported hardware in a ROS system ( 2019-05-20 02:36:25 -0500 )

15 0 Map gazebo world SLAM ( 2019-05-20 02:35:30 -0500 )

15 0 Fix sourcing each package separately with catkin_make_isolated ( 2019-05-20 02:31:38 -0500 )

2 0 How to run a cpp file in ROS? ( 2019-04-25 15:24:23 -0500 )

0 -2 How to run a cpp file in ROS? ( 2019-04-25 08:59:24 -0500 )

10 0 Tuning Gmapping Parameters or Alternative SLAM Algorithm ( 2019-04-25 05:58:08 -0500 )

15 0 Python 3 - the state of things ( 2019-03-01 12:35:11 -0500 )

0 -2 Why did ros prevail? ( 2019-02-28 14:21:50 -0500 )

10 0 rviz - video recording ( 2019-02-19 04:16:19 -0500 )

15 0 Report issues about a header file in /opt/ros/kinetic/include. ( 2018-12-18 13:08:51 -0500 )

10 0 Report issues about a header file in /opt/ros/kinetic/include. ( 2018-12-18 13:08:49 -0500 )

15 0 ROS2 Linking ( 2018-11-05 11:27:20 -0500 )

10 0 ROS2 Linking ( 2018-11-02 10:51:25 -0500 )

0 -2 rclpy commend crushed in ROS2 ( 2018-10-31 14:47:31 -0500 )

0 -2 No rule to make target error ( 2018-10-16 10:57:59 -0500 )

15 0 QtCreator breaking my workspace ( 2018-08-08 01:45:26 -0500 )

15 0 Ros NXT question ( 2018-06-25 11:50:07 -0500 )

15 0 wheel encoders values ( 2018-06-25 11:49:42 -0500 )

10 0 Creating a map with gmapping using kinect and fake odometry data ( 2018-03-14 09:45:17 -0500 )

10 0 Python 3 - the state of things ( 2018-02-09 18:27:01 -0500 )

15 0 Problem with nxt_lejos installation on ROS Hydro ( 2018-01-30 22:10:49 -0500 )

15 0 Why rosdep install doesn't work? ( 2018-01-11 20:39:22 -0500 )

15 0 Issues installing package on Raspberry 2 ( 2018-01-11 20:36:13 -0500 )

15 0 tcp implentation in ROS ( 2017-12-20 20:16:58 -0500 )

15 0 Using C++ class in Python 2.7 and 3.x ( 2017-11-26 16:16:21 -0500 )

15 0 ROS on windows ( 2017-11-06 18:52:24 -0500 )

10 0 Using non-supported hardware in a ROS system ( 2017-07-25 14:19:29 -0500 )

10 0 Make 2d map by hand ( 2017-07-14 01:09:36 -0500 )

10 0 Make 2d map by hand ( 2017-07-13 21:20:34 -0500 )

10 0 Make 2d map by hand ( 2017-07-13 12:44:45 -0500 )

10 0 Question about Tutorial : Introduction to Stage Controllers - stageros problem ( 2017-07-09 11:09:05 -0500 )

0 -15 Specify gcc -pg option for catkin? ( 2017-05-24 15:33:43 -0500 )

15 0 Specify gcc -pg option for catkin? ( 2017-05-24 15:32:17 -0500 )

0 -15 Specify gcc -pg option for catkin? ( 2017-05-24 15:32:08 -0500 )

15 0 Specify gcc -pg option for catkin? ( 2017-05-24 15:32:07 -0500 )

0 -15 Specify gcc -pg option for catkin? ( 2017-05-24 15:32:03 -0500 )

15 0 Specify gcc -pg option for catkin? ( 2017-05-24 15:31:59 -0500 )

10 0 Specify gcc -pg option for catkin? ( 2017-05-24 15:30:53 -0500 )

10 0 Problem building rosserial on Ubuntu MATE and ROS Kinetic on Raspberry 3 & Arduino ( 2017-04-19 08:17:28 -0500 )

10 0 Problem building rosserial on Ubuntu MATE and ROS Kinetic on Raspberry 3 & Arduino ( 2017-04-19 08:02:26 -0500 )

0 -10 Problem building rosserial on Ubuntu MATE and ROS Kinetic on Raspberry 3 & Arduino ( 2017-04-19 08:02:19 -0500 )

10 0 Problem building rosserial on Ubuntu MATE and ROS Kinetic on Raspberry 3 & Arduino ( 2017-04-19 08:02:19 -0500 )

0 -10 Problem building rosserial on Ubuntu MATE and ROS Kinetic on Raspberry 3 & Arduino ( 2017-04-19 08:02:17 -0500 )

10 0 Problem building rosserial on Ubuntu MATE and ROS Kinetic on Raspberry 3 & Arduino ( 2017-04-19 08:02:14 -0500 )

15 0 Problem building rosserial on Ubuntu MATE and ROS Kinetic on Raspberry 3 & Arduino ( 2017-04-19 08:00:58 -0500 )

15 0 Error: command stage_ros not implemente ( 2017-04-15 10:45:11 -0500 )

10 0 Which ROS Version should I use? ( 2017-03-25 14:31:05 -0500 )

10 0 Hector Slam ( 2017-03-01 07:37:19 -0500 )

10 0 Which ROS Version should I use? ( 2017-02-19 11:19:31 -0500 )

0 -10 Which ROS Version should I use? ( 2017-02-19 11:19:29 -0500 )

10 0 Which ROS Version should I use? ( 2017-02-19 11:19:28 -0500 )

0 -10 Which ROS Version should I use? ( 2017-02-19 11:19:24 -0500 )

10 0 Which ROS Version should I use? ( 2017-02-19 11:19:22 -0500 )

0 -10 Build Debian Package Locally? ( 2017-01-24 12:51:22 -0500 )

10 0 Build Debian Package Locally? ( 2017-01-24 12:51:04 -0500 )

0 -15 custom package deploy ( 2016-11-21 04:20:29 -0500 )

10 0 teleop_base compile error with finding joy package ( 2016-11-13 04:43:19 -0500 )

10 0 rviz - video recording ( 2016-11-09 18:39:51 -0500 )

10 0 rviz - video recording ( 2016-09-20 10:42:16 -0500 )

15 0 Sending data from ROS to server-socket ( 2016-09-14 14:42:25 -0500 )

10 0 Which ROS Version should I use? ( 2016-09-14 09:27:47 -0500 )

15 0 nested metapackages ( 2016-08-08 00:16:30 -0500 )

10 0 rviz - video recording ( 2016-06-30 10:05:00 -0500 )

10 0 Catkin_make error: virtual memory exhausted: Cannot allocate memory ( 2016-05-23 12:00:05 -0500 )

15 0 rosserial_arduino IDE error ( 2016-05-08 15:22:58 -0500 )

15 0 How to increase speed of passing velocity commands to p3dx ( 2016-05-08 15:21:28 -0500 )

10 0 rviz - video recording ( 2016-02-11 06:02:25 -0500 )

0 -10 Catkin_make error: virtual memory exhausted: Cannot allocate memory ( 2016-01-18 10:03:17 -0500 )

10 0 Catkin_make error: virtual memory exhausted: Cannot allocate memory ( 2016-01-18 10:03:10 -0500 )

0 -2 How to build a map using slam_gmapping & amcl ( 2016-01-12 09:00:03 -0500 )

2 0 How to build a map using slam_gmapping & amcl ( 2016-01-12 09:00:02 -0500 )

0 -2 How to build a map using slam_gmapping & amcl ( 2016-01-12 09:00:00 -0500 )

15 0 how to control Pioneer 3 DX by force sensor ( 2015-11-28 16:23:45 -0500 )

0 -15 teleop_base compile error with finding joy package ( 2015-11-28 16:19:30 -0500 )

15 0 teleop_base compile error with finding joy package ( 2015-11-28 16:19:24 -0500 )

10 0 catkin permission ( 2015-11-03 08:01:30 -0500 )

15 0 A question about ROS Laser Scan Assembler ( 2015-09-28 01:16:54 -0500 )

15 0 Dropping connection on geometry_msgs::Transform ( 2015-09-28 01:16:46 -0500 )

2 0 How will we install Ros Indigo on ubuntu 14.04.3 LTS? ( 2015-09-26 12:47:47 -0500 )

15 0 Which ROS Version should I use? ( 2015-09-21 02:40:57 -0500 )

0 -10 hector_slam with odometry? ( 2015-09-17 13:22:19 -0500 )

10 0 hector_slam with odometry? ( 2015-09-17 13:22:07 -0500 )

10 0 base local planners parameters ( 2015-09-15 02:25:42 -0500 )

10 0 How to build a map using slam_gmapping & amcl ( 2015-09-08 04:14:17 -0500 )

10 0 Is ROS QT using .pro supports? or Anyone did it? ( 2015-09-03 04:22:13 -0500 )

2 0 Where can i publish a Raspberry pi 2 - Ros indigo ISO image? ( 2015-09-02 08:53:24 -0500 )

15 0 Need help with writing c++ code for NXT ( 2015-09-01 00:56:57 -0500 )

15 0 Compilation error ROS_PACKAGE_PATH in groovy ( 2015-08-31 21:16:14 -0500 )

15 0 Ubuntu 12.10 update-manager wants to remove Groovy ( 2015-08-31 21:15:11 -0500 )

10 0 Subscriber callback function not called when trying to capture data using Kinect [Solved] ( 2015-08-11 14:16:49 -0500 )

15 0 Subscriber callback function not called when trying to capture data using Kinect [Solved] ( 2015-08-11 14:16:48 -0500 )